Jamestown, Ohio
Current Conditions -  °F | °C
As of 4:56 PM on Monday 20 Oct 2014 (Local Time) from KSGH Reporting Station
Overcast Overcast  
Wind Chill: 55°   Ceiling: 2600
Heat Index: 55°   Visibility: 7mi
Dew Point: 53°   Wind: 5mph
Humidity: 93%   Direction: 190°S
Pressure: 29.87"   Gusts: NA
Location:  39.66°N, 83.73°W
Report Text: KSGH 202056Z AUTO 19004KT 7SM OVC026 13/12 A2987 RMK AO2 56005 60012 T01270116 RAE21 P0001 SLP116
Loading
Personal Weather Stations






























Interactive Weather Map
Tropical Storm Tracking
New forecast layout! Learn more

10-Day Weather Forecast

Advertisements
Track Severe Weather on mobile